createdAt,value
2023-04-09T00:00:50.494Z,14.23
2023-04-09T00:01:52.854Z,15.15
2023-04-09T00:02:55.676Z,12.88
2023-04-09T00:03:58.138Z,14.00
2023-04-09T00:05:02.164Z,14.55
2023-04-09T00:06:05.465Z,13.82
2023-04-09T00:07:07.695Z,12.90
2023-04-09T00:08:09.943Z,13.65
2023-04-09T00:09:12.251Z,14.10
2023-04-09T00:10:14.517Z,13.40
2023-04-09T00:11:16.783Z,13.73
2023-04-09T00:12:19.059Z,13.60
2023-04-09T00:13:31.886Z,15.32
2023-04-09T00:14:40.772Z,14.95
2023-04-09T00:15:43.013Z,14.43
2023-04-09T00:16:45.378Z,12.82
2023-04-09T00:17:47.673Z,14.88
2023-04-09T00:18:50.200Z,12.85
2023-04-09T00:19:52.688Z,16.75
2023-04-09T00:20:55.001Z,14.30
2023-04-09T00:21:57.299Z,14.35
2023-04-09T00:22:59.523Z,14.43
2023-04-09T00:24:01.866Z,12.95
2023-04-09T00:25:04.366Z,15.52
2023-04-09T00:26:06.900Z,12.63
2023-04-09T00:27:09.168Z,13.93
2023-04-09T00:28:11.457Z,14.35
2023-04-09T00:29:13.835Z,14.15
2023-04-09T00:30:16.262Z,17.30
2023-04-09T00:31:20.523Z,16.40
2023-04-09T00:32:23.064Z,13.02
2023-04-09T00:33:25.839Z,15.75
2023-04-09T00:34:28.113Z,16.05
2023-04-09T00:35:30.674Z,15.95
2023-04-09T00:36:33.140Z,13.95
2023-04-09T00:37:35.808Z,15.45
2023-04-09T00:38:38.094Z,16.88
2023-04-09T00:39:40.492Z,17.30
2023-04-09T00:40:42.819Z,17.63
2023-04-09T00:41:45.096Z,17.77
2023-04-09T00:42:48.160Z,17.70
2023-04-09T00:43:50.484Z,16.65
2023-04-09T00:44:52.770Z,16.45
2023-04-09T00:45:55.641Z,14.82
2023-04-09T00:47:00.659Z,17.25
2023-04-09T00:48:03.069Z,17.00
2023-04-09T00:49:06.143Z,16.80
2023-04-09T00:50:08.761Z,18.88
2023-04-09T00:51:11.055Z,18.63
2023-04-09T00:52:13.387Z,15.82
2023-04-09T00:53:16.916Z,18.55
2023-04-09T00:54:19.468Z,18.55
2023-04-09T00:55:22.893Z,20.40
2023-04-09T00:56:26.470Z,22.60
2023-04-09T00:57:28.967Z,22.10
2023-04-09T00:58:31.306Z,23.45
2023-04-09T00:59:33.789Z,22.63
2023-04-09T01:00:36.175Z,19.67
2023-04-09T01:01:38.476Z,21.08
2023-04-09T01:02:42.131Z,21.55
2023-04-09T01:03:44.816Z,20.73
2023-04-09T01:04:47.915Z,20.77
2023-04-09T01:06:12.302Z,21.90
2023-04-09T01:07:36.229Z,18.38
2023-04-09T01:09:01.516Z,20.00
2023-04-09T01:10:24.286Z,17.17
2023-04-09T01:11:37.904Z,20.77
2023-04-09T01:13:07.315Z,19.67
2023-04-09T01:14:19.778Z,16.70
2023-04-09T01:15:33.785Z,18.50
2023-04-09T01:16:37.930Z,23.55
2023-04-09T01:17:54.171Z,16.92
2023-04-09T01:19:31.851Z,19.85
2023-04-09T01:20:48.037Z,18.10
2023-04-09T01:21:51.450Z,21.95
2023-04-09T01:22:58.252Z,19.88
2023-04-09T01:24:20.476Z,22.50
2023-04-09T01:25:37.454Z,25.55
2023-04-09T01:26:54.734Z,26.00
2023-04-09T01:28:38.216Z,22.08
2023-04-09T01:29:47.252Z,22.40
2023-04-09T01:30:52.982Z,23.52
2023-04-09T01:31:55.967Z,25.13
2023-04-09T01:32:59.345Z,21.15
2023-04-09T01:34:02.501Z,23.00
2023-04-09T01:35:05.677Z,18.83
2023-04-09T01:36:09.079Z,22.48
2023-04-09T01:37:13.063Z,22.10
2023-04-09T01:38:18.119Z,22.23
2023-04-09T01:39:21.295Z,20.52
2023-04-09T01:40:24.358Z,24.42
2023-04-09T01:41:27.303Z,19.02
2023-04-09T01:42:30.542Z,21.08
2023-04-09T01:43:34.033Z,22.58
2023-04-09T01:44:39.122Z,17.95
2023-04-09T01:45:44.565Z,18.02
2023-04-09T01:46:48.128Z,20.83
2023-04-09T01:47:50.934Z,17.48
2023-04-09T01:48:55.169Z,17.08
2023-04-09T01:49:57.803Z,20.10
2023-04-09T01:51:00.598Z,18.15
2023-04-09T01:52:03.389Z,17.20
2023-04-09T01:53:05.836Z,18.45
2023-04-09T01:54:08.389Z,18.58
2023-04-09T01:55:10.940Z,17.05
2023-04-09T01:56:13.249Z,15.38
2023-04-09T01:57:15.979Z,16.48
2023-04-09T01:58:18.206Z,18.23
2023-04-09T01:59:20.469Z,19.23
2023-04-09T02:00:24.339Z,18.92
2023-04-09T02:01:35.601Z,16.83
2023-04-09T02:02:46.763Z,15.43
2023-04-09T02:03:54.636Z,18.88
2023-04-09T02:05:01.863Z,19.70
2023-04-09T02:06:11.402Z,18.00
2023-04-09T02:07:25.561Z,21.10
2023-04-09T02:08:29.020Z,18.15
2023-04-09T02:09:33.962Z,20.15
2023-04-09T02:10:38.197Z,21.80
2023-04-09T02:11:46.060Z,19.05
2023-04-09T02:12:51.724Z,22.95
2023-04-09T02:13:55.843Z,19.98
2023-04-09T02:15:02.245Z,21.83
2023-04-09T02:16:05.006Z,22.85
2023-04-09T02:17:07.484Z,26.45
2023-04-09T02:18:22.896Z,29.25
2023-04-09T02:19:25.343Z,24.08
2023-04-09T02:20:28.027Z,26.77
2023-04-09T02:21:30.281Z,24.80
2023-04-09T02:22:34.499Z,22.52
2023-04-09T02:23:36.829Z,22.50
2023-04-09T02:24:40.550Z,18.70
2023-04-09T02:25:45.517Z,21.05
2023-04-09T02:26:47.804Z,20.65
2023-04-09T02:27:50.167Z,24.15
2023-04-09T02:28:52.576Z,18.85
2023-04-09T02:29:55.032Z,21.13
2023-04-09T02:30:57.329Z,19.27
2023-04-09T02:31:59.907Z,18.05
2023-04-09T02:33:02.297Z,18.95
2023-04-09T02:34:04.636Z,21.48
2023-04-09T02:35:08.229Z,22.17
2023-04-09T02:36:13.833Z,23.08
2023-04-09T02:37:16.120Z,20.27
2023-04-09T02:38:18.901Z,19.55
2023-04-09T02:39:21.189Z,20.25
2023-04-09T02:40:23.453Z,17.73
2023-04-09T02:41:26.384Z,17.80
2023-04-09T02:42:28.615Z,18.17
2023-04-09T02:43:31.241Z,17.13
2023-04-09T02:44:33.680Z,17.70
2023-04-09T02:45:36.357Z,17.75
2023-04-09T02:46:39.826Z,16.90
2023-04-09T02:47:42.446Z,15.18
2023-04-09T02:48:44.745Z,17.65
2023-04-09T02:49:47.080Z,22.33
2023-04-09T02:50:49.418Z,23.45
2023-04-09T02:51:51.734Z,21.20
2023-04-09T02:52:54.043Z,24.35
2023-04-09T02:53:56.354Z,26.55
2023-04-09T02:54:58.620Z,22.45
2023-04-09T02:56:01.025Z,22.52
2023-04-09T02:57:03.288Z,25.40
2023-04-09T02:58:05.653Z,25.63
2023-04-09T02:59:07.994Z,23.85
2023-04-09T03:00:12.506Z,24.23
2023-04-09T03:01:15.158Z,23.60
2023-04-09T03:02:17.506Z,22.80
2023-04-09T03:03:20.017Z,24.77
2023-04-09T03:04:22.467Z,21.73
2023-04-09T03:05:24.855Z,23.45
2023-04-09T03:06:27.137Z,23.50
2023-04-09T03:07:29.521Z,21.73
2023-04-09T03:08:31.882Z,22.90
2023-04-09T03:09:34.359Z,21.30
2023-04-09T03:10:36.651Z,20.80
2023-04-09T03:11:38.933Z,20.35
2023-04-09T03:12:41.380Z,20.90
2023-04-09T03:13:43.645Z,23.13
2023-04-09T03:14:45.941Z,24.40
2023-04-09T03:15:53.075Z,21.77
2023-04-09T03:16:55.839Z,24.75
2023-04-09T03:17:58.146Z,22.42
2023-04-09T03:19:00.465Z,23.20
2023-04-09T03:20:02.992Z,24.10
2023-04-09T03:21:13.599Z,22.27
2023-04-09T03:22:21.679Z,22.92
2023-04-09T03:23:27.626Z,25.80
2023-04-09T03:24:31.570Z,20.15
2023-04-09T03:25:37.119Z,22.08
2023-04-09T03:26:47.282Z,22.95
2023-04-09T03:27:50.849Z,24.77
2023-04-09T03:29:00.586Z,18.35
2023-04-09T03:30:03.418Z,22.10
2023-04-09T03:31:14.188Z,22.67
2023-04-09T03:32:19.058Z,21.63
2023-04-09T03:33:21.563Z,21.90
2023-04-09T03:34:29.857Z,25.02
2023-04-09T03:35:33.184Z,22.83
2023-04-09T03:36:36.326Z,22.95
2023-04-09T03:37:40.694Z,21.08
2023-04-09T03:38:50.572Z,24.60
2023-04-09T03:40:26.048Z,23.70
2023-04-09T03:41:28.377Z,19.23
2023-04-09T03:42:35.022Z,20.73
2023-04-09T03:43:38.141Z,23.35
2023-04-09T03:44:41.044Z,23.00
2023-04-09T03:45:46.427Z,20.05
2023-04-09T03:47:01.135Z,19.75
2023-04-09T03:48:04.377Z,21.35
2023-04-09T03:49:06.920Z,19.55
2023-04-09T03:50:14.621Z,17.92
2023-04-09T03:51:28.582Z,15.88
2023-04-09T03:52:33.867Z,18.55
2023-04-09T03:53:41.978Z,18.73
2023-04-09T03:54:44.380Z,16.77
2023-04-09T03:55:51.995Z,15.75
2023-04-09T03:56:59.595Z,17.60
2023-04-09T03:58:01.996Z,17.55
2023-04-09T03:59:08.487Z,17.63
2023-04-09T04:00:15.102Z,13.60
2023-04-09T04:01:26.163Z,16.40
2023-04-09T04:02:33.908Z,16.20
2023-04-09T04:03:39.839Z,18.45
2023-04-09T04:04:47.678Z,18.15
2023-04-09T04:05:50.292Z,18.48
2023-04-09T04:06:52.982Z,19.98
2023-04-09T04:08:20.500Z,20.55
2023-04-09T04:09:23.348Z,19.00
2023-04-09T04:10:34.418Z,18.35
2023-04-09T04:11:36.811Z,19.17
2023-04-09T04:12:39.052Z,20.50
2023-04-09T04:13:49.335Z,27.33
2023-04-09T04:14:51.624Z,26.67
2023-04-09T04:16:00.689Z,27.85
2023-04-09T04:17:03.394Z,24.15
2023-04-09T04:18:06.144Z,25.38
2023-04-09T04:19:16.307Z,23.92
2023-04-09T04:20:22.844Z,26.50
2023-04-09T04:21:36.815Z,25.13
2023-04-09T04:22:39.090Z,26.17
2023-04-09T04:23:41.817Z,26.08
2023-04-09T04:24:57.620Z,29.23
2023-04-09T04:26:00.613Z,25.75
2023-04-09T04:27:07.826Z,26.00
2023-04-09T04:28:11.197Z,25.73
2023-04-09T04:29:16.879Z,26.20
2023-04-09T04:30:34.543Z,25.80
2023-04-09T04:31:40.976Z,26.55
2023-04-09T04:32:44.257Z,25.58
2023-04-09T04:33:47.544Z,26.27
2023-04-09T04:34:50.901Z,26.58
2023-04-09T04:36:11.620Z,24.70
2023-04-09T04:37:23.361Z,28.20
2023-04-09T04:38:29.581Z,22.98
2023-04-09T04:39:34.151Z,20.75
2023-04-09T04:40:44.568Z,22.83
2023-04-09T04:41:46.805Z,26.52
2023-04-09T04:42:54.220Z,25.58
2023-04-09T04:43:57.370Z,25.17
2023-04-09T04:45:00.765Z,21.88
2023-04-09T04:46:19.174Z,26.08
2023-04-09T04:47:22.402Z,21.27
2023-04-09T04:48:24.862Z,26.33
2023-04-09T04:49:27.603Z,23.90
2023-04-09T04:50:30.507Z,24.73
2023-04-09T04:51:37.056Z,26.33
2023-04-09T04:52:45.203Z,24.38
2023-04-09T04:53:47.703Z,27.75
2023-04-09T04:54:50.851Z,24.83
2023-04-09T04:55:57.297Z,28.00
2023-04-09T04:57:02.347Z,23.45
2023-04-09T04:58:08.085Z,31.33
2023-04-09T04:59:18.544Z,26.75
2023-04-09T05:00:31.973Z,30.35
2023-04-09T05:01:37.656Z,31.02
2023-04-09T05:02:44.123Z,33.85
2023-04-09T05:03:56.889Z,35.05
2023-04-09T05:05:06.692Z,34.42
2023-04-09T05:06:14.380Z,33.88
2023-04-09T05:07:19.463Z,29.63
2023-04-09T05:08:27.147Z,32.38
2023-04-09T05:09:31.324Z,31.35
2023-04-09T05:10:44.014Z,29.80
2023-04-09T05:11:46.700Z,29.58
2023-04-09T05:12:54.125Z,27.38
2023-04-09T05:14:06.395Z,30.00
2023-04-09T05:15:08.918Z,25.98
2023-04-09T05:16:20.159Z,26.98
2023-04-09T05:17:29.022Z,25.23
2023-04-09T05:18:31.396Z,30.05
2023-04-09T05:19:33.613Z,25.65
2023-04-09T05:20:38.496Z,27.80
2023-04-09T05:21:45.065Z,27.13
2023-04-09T05:22:48.630Z,24.77
2023-04-09T05:23:51.406Z,27.08
2023-04-09T05:24:53.830Z,25.75
2023-04-09T05:25:56.414Z,27.10
2023-04-09T05:27:12.308Z,24.17
2023-04-09T05:28:16.906Z,24.67
2023-04-09T05:29:20.427Z,23.52
2023-04-09T05:30:22.869Z,23.88
2023-04-09T05:31:26.292Z,24.70
2023-04-09T05:32:36.776Z,23.00
2023-04-09T05:33:39.871Z,25.30
2023-04-09T05:34:49.876Z,25.80
2023-04-09T05:35:52.459Z,27.27
2023-04-09T05:36:55.621Z,25.58
2023-04-09T05:37:59.180Z,29.27
2023-04-09T05:39:01.436Z,24.92
2023-04-09T05:40:06.153Z,25.23
2023-04-09T05:41:08.852Z,26.10
2023-04-09T05:42:18.592Z,23.45
2023-04-09T05:43:36.792Z,25.17
2023-04-09T05:44:39.056Z,27.15
2023-04-09T05:45:51.987Z,26.63
2023-04-09T05:46:54.283Z,22.95
2023-04-09T05:48:01.725Z,21.52
2023-04-09T05:49:04.934Z,23.67
2023-04-09T05:50:09.053Z,23.58
2023-04-09T05:51:11.616Z,21.75
2023-04-09T05:52:16.258Z,21.75
2023-04-09T05:53:19.983Z,21.50
2023-04-09T05:54:22.272Z,23.50
2023-04-09T05:55:24.578Z,19.25
2023-04-09T05:56:31.517Z,20.55
2023-04-09T05:57:33.843Z,21.90
2023-04-09T05:58:39.575Z,24.35
2023-04-09T05:59:41.855Z,18.50
2023-04-09T06:00:44.214Z,19.88
2023-04-09T06:01:46.470Z,18.50
2023-04-09T06:02:48.930Z,18.90
2023-04-09T06:03:51.986Z,21.20
2023-04-09T06:04:55.779Z,18.95
2023-04-09T06:05:58.118Z,19.23
2023-04-09T06:07:00.606Z,20.02
2023-04-09T06:08:03.141Z,16.80
2023-04-09T06:09:05.771Z,17.95
2023-04-09T06:10:08.663Z,18.85
2023-04-09T06:11:12.398Z,17.63
2023-04-09T06:12:15.788Z,18.13
2023-04-09T06:13:18.049Z,16.50
2023-04-09T06:14:20.380Z,15.52
2023-04-09T06:15:22.741Z,18.58
2023-04-09T06:16:25.026Z,17.17
2023-04-09T06:17:27.524Z,17.08
2023-04-09T06:18:30.013Z,17.75
2023-04-09T06:19:32.357Z,17.60
2023-04-09T06:20:34.819Z,19.60
2023-04-09T06:21:37.153Z,20.48
2023-04-09T06:22:39.561Z,18.35
2023-04-09T06:23:41.957Z,16.88
2023-04-09T06:24:44.280Z,17.85
2023-04-09T06:25:46.526Z,16.35
2023-04-09T06:26:48.970Z,18.80
2023-04-09T06:27:51.592Z,17.40
2023-04-09T06:28:54.056Z,16.60
2023-04-09T06:29:56.357Z,17.65
2023-04-09T06:30:58.976Z,18.08
2023-04-09T06:32:01.280Z,17.95
2023-04-09T06:33:03.778Z,15.60
2023-04-09T06:34:06.167Z,18.20
2023-04-09T06:35:10.915Z,18.35
2023-04-09T06:36:13.822Z,16.95
2023-04-09T06:37:16.561Z,17.75
2023-04-09T06:38:18.906Z,18.63
2023-04-09T06:39:21.457Z,17.63
2023-04-09T06:40:23.701Z,16.55
2023-04-09T06:41:26.689Z,18.85
2023-04-09T06:42:29.054Z,17.23
2023-04-09T06:43:39.245Z,16.88
2023-04-09T06:44:41.527Z,17.48
2023-04-09T06:45:43.835Z,15.45
2023-04-09T06:46:46.392Z,17.13
2023-04-09T06:47:49.351Z,17.13
2023-04-09T06:48:53.305Z,17.10
2023-04-09T06:49:55.576Z,17.15
2023-04-09T06:50:57.880Z,16.48
2023-04-09T06:52:00.506Z,18.33
2023-04-09T06:53:02.804Z,17.95
2023-04-09T06:54:05.045Z,17.27
2023-04-09T06:55:07.778Z,18.00
2023-04-09T06:56:10.501Z,16.40
2023-04-09T06:57:12.728Z,18.00
2023-04-09T06:58:15.044Z,17.48
2023-04-09T06:59:17.441Z,18.40
2023-04-09T07:00:19.760Z,17.83
2023-04-09T07:01:22.105Z,16.63
2023-04-09T07:02:24.572Z,18.50
2023-04-09T07:03:28.035Z,18.65
2023-04-09T07:04:30.619Z,17.48
2023-04-09T07:05:33.283Z,19.80
2023-04-09T07:06:35.812Z,19.73
2023-04-09T07:07:38.882Z,17.85
2023-04-09T07:08:41.124Z,19.30
2023-04-09T07:09:43.441Z,19.38
2023-04-09T07:10:47.398Z,19.77
2023-04-09T07:11:49.649Z,18.10
2023-04-09T07:12:51.884Z,17.33
2023-04-09T07:13:55.786Z,19.30
2023-04-09T07:15:03.248Z,18.52
2023-04-09T07:16:05.747Z,18.05
2023-04-09T07:17:08.321Z,19.58
2023-04-09T07:18:11.034Z,16.80
2023-04-09T07:19:13.391Z,17.83
2023-04-09T07:20:15.715Z,19.85
2023-04-09T07:21:18.042Z,20.42
2023-04-09T07:22:24.358Z,19.15
2023-04-09T07:23:27.240Z,18.15
2023-04-09T07:24:29.464Z,17.30
2023-04-09T07:25:32.448Z,20.88
2023-04-09T07:26:34.739Z,20.55
2023-04-09T07:27:37.350Z,18.98
2023-04-09T07:28:39.800Z,26.45
2023-04-09T07:29:44.684Z,22.17
2023-04-09T07:30:47.065Z,20.63
2023-04-09T07:31:49.502Z,19.42
2023-04-09T07:32:51.981Z,21.63
2023-04-09T07:33:54.598Z,21.27
2023-04-09T07:34:57.667Z,25.27
2023-04-09T07:35:59.995Z,23.52
2023-04-09T07:37:02.327Z,23.48
2023-04-09T07:38:04.611Z,26.13
2023-04-09T07:39:06.834Z,23.30
2023-04-09T07:40:09.394Z,22.35
2023-04-09T07:41:12.050Z,25.23
2023-04-09T07:42:14.463Z,23.10
2023-04-09T07:43:16.915Z,22.58
2023-04-09T07:44:19.230Z,22.58
2023-04-09T07:45:21.615Z,24.70
2023-04-09T07:46:23.925Z,22.25
2023-04-09T07:47:27.098Z,20.75
2023-04-09T07:48:29.479Z,24.70
2023-04-09T07:49:31.868Z,19.88
2023-04-09T07:50:34.176Z,22.45
2023-04-09T07:51:36.437Z,22.58
2023-04-09T07:52:38.746Z,19.65
2023-04-09T07:53:41.385Z,24.70
2023-04-09T07:54:43.711Z,21.77
2023-04-09T07:55:46.637Z,19.50
2023-04-09T07:56:49.137Z,21.55
2023-04-09T07:57:51.742Z,19.35
2023-04-09T07:58:54.201Z,20.20
2023-04-09T07:59:56.776Z,19.67
2023-04-09T08:00:59.094Z,20.35
2023-04-09T08:02:01.475Z,23.65
2023-04-09T08:03:04.273Z,20.35
2023-04-09T08:04:06.940Z,21.88
2023-04-09T08:05:10.036Z,22.08
2023-04-09T08:06:12.359Z,19.95
2023-04-09T08:07:14.624Z,19.75
2023-04-09T08:08:17.048Z,17.40
2023-04-09T08:09:20.455Z,19.08
2023-04-09T08:10:22.768Z,18.15
2023-04-09T08:11:26.087Z,18.77
2023-04-09T08:12:28.362Z,18.52
2023-04-09T08:13:30.795Z,16.80
2023-04-09T08:14:33.300Z,18.13
2023-04-09T08:15:35.560Z,18.20
2023-04-09T08:16:37.979Z,17.67
2023-04-09T08:17:40.551Z,19.13
2023-04-09T08:18:42.871Z,19.80
2023-04-09T08:19:45.116Z,23.42
2023-04-09T08:20:47.430Z,18.65
2023-04-09T08:21:49.800Z,19.73
2023-04-09T08:22:52.104Z,19.40
2023-04-09T08:23:56.161Z,17.90
2023-04-09T08:25:01.484Z,19.65
2023-04-09T08:26:04.918Z,16.10
2023-04-09T08:27:07.426Z,17.90
2023-04-09T08:28:09.721Z,15.82
2023-04-09T08:29:13.604Z,16.95
2023-04-09T08:30:18.281Z,16.88
2023-04-09T08:31:21.581Z,18.33
2023-04-09T08:32:23.931Z,16.88
2023-04-09T08:33:26.602Z,16.52
2023-04-09T08:34:28.841Z,18.15
2023-04-09T08:35:31.703Z,21.75
2023-04-09T08:36:35.488Z,25.17
2023-04-09T08:37:38.379Z,23.60
2023-04-09T08:38:42.008Z,25.55
2023-04-09T08:39:44.326Z,23.58
2023-04-09T08:40:46.639Z,24.15
2023-04-09T08:41:49.272Z,23.48
2023-04-09T08:42:59.030Z,22.55
2023-04-09T08:44:01.410Z,19.88
2023-04-09T08:45:05.220Z,19.55
2023-04-09T08:46:07.575Z,18.40
2023-04-09T08:47:11.648Z,20.15
2023-04-09T08:48:14.454Z,21.48
2023-04-09T08:49:16.866Z,19.23
2023-04-09T08:50:19.851Z,22.80
2023-04-09T08:51:24.064Z,19.23
2023-04-09T08:52:33.909Z,19.23
2023-04-09T08:53:36.820Z,18.70
2023-04-09T08:54:39.133Z,19.83
2023-04-09T08:55:45.804Z,19.23
2023-04-09T08:56:48.210Z,17.90
2023-04-09T08:57:50.511Z,17.98
2023-04-09T08:58:53.626Z,18.60
2023-04-09T08:59:55.973Z,19.92
2023-04-09T09:00:58.314Z,17.42
2023-04-09T09:02:08.837Z,19.35
2023-04-09T09:03:15.233Z,17.95
2023-04-09T09:04:17.632Z,20.92
2023-04-09T09:05:36.326Z,24.80
2023-04-09T09:06:40.883Z,21.02
2023-04-09T09:07:54.759Z,21.33
2023-04-09T09:09:15.837Z,23.80
2023-04-09T09:10:18.224Z,22.70
2023-04-09T09:11:27.281Z,23.38
2023-04-09T09:12:38.668Z,21.33
2023-04-09T09:13:40.996Z,21.67
2023-04-09T09:14:43.309Z,21.67
2023-04-09T09:15:47.716Z,19.52
2023-04-09T09:16:56.131Z,18.98
2023-04-09T09:18:00.775Z,20.05
2023-04-09T09:19:03.483Z,25.00
2023-04-09T09:20:20.917Z,20.25
2023-04-09T09:21:23.981Z,21.90
2023-04-09T09:22:26.338Z,24.27
2023-04-09T09:23:36.759Z,25.08
2023-04-09T09:24:50.307Z,25.38
2023-04-09T09:25:52.832Z,22.77
2023-04-09T09:26:55.764Z,22.73
2023-04-09T09:28:09.084Z,19.45
2023-04-09T09:29:11.504Z,20.55
2023-04-09T09:30:25.748Z,22.05
2023-04-09T09:31:28.167Z,25.27
2023-04-09T09:32:30.773Z,21.85
2023-04-09T09:33:33.939Z,23.10
2023-04-09T09:34:36.329Z,20.80
2023-04-09T09:35:51.372Z,21.05
2023-04-09T09:36:53.800Z,18.20
2023-04-09T09:38:06.615Z,22.27
2023-04-09T09:39:13.137Z,18.50
2023-04-09T09:40:27.860Z,17.90
2023-04-09T09:41:30.507Z,19.88
2023-04-09T09:42:33.086Z,17.20
2023-04-09T09:43:44.577Z,17.52
2023-04-09T09:44:47.948Z,26.38
2023-04-09T09:45:50.506Z,20.90
2023-04-09T09:46:52.955Z,21.48
2023-04-09T09:47:55.747Z,22.80
2023-04-09T09:48:58.082Z,20.60
2023-04-09T09:50:00.419Z,22.15
2023-04-09T09:51:06.552Z,23.15
2023-04-09T09:52:10.880Z,20.83
2023-04-09T09:53:14.890Z,19.95
2023-04-09T09:54:21.668Z,19.65
2023-04-09T09:55:26.318Z,21.05
2023-04-09T09:56:35.286Z,19.17
2023-04-09T09:57:41.778Z,19.20
2023-04-09T09:58:53.447Z,17.60
2023-04-09T10:00:01.535Z,17.65
2023-04-09T10:01:14.184Z,21.00
2023-04-09T10:02:22.931Z,23.58
2023-04-09T10:03:27.709Z,25.92
2023-04-09T10:04:34.636Z,23.40
2023-04-09T10:05:39.227Z,23.95
2023-04-09T10:06:45.306Z,24.63
2023-04-09T10:07:49.672Z,23.15
2023-04-09T10:08:52.883Z,22.02
2023-04-09T10:09:56.868Z,22.13
2023-04-09T10:11:00.904Z,21.95
2023-04-09T10:12:05.043Z,32.00
2023-04-09T10:13:10.195Z,33.10
2023-04-09T10:14:13.366Z,31.42
2023-04-09T10:15:15.915Z,29.48
2023-04-09T10:16:19.199Z,28.33
2023-04-09T10:17:21.815Z,26.42
2023-04-09T10:18:24.376Z,25.63
2023-04-09T10:19:27.125Z,22.70
2023-04-09T10:20:49.014Z,22.92
2023-04-09T10:22:01.900Z,21.13
2023-04-09T10:23:15.603Z,21.98
2023-04-09T10:24:18.005Z,19.70
2023-04-09T10:25:20.822Z,19.48
2023-04-09T10:26:27.764Z,19.90
2023-04-09T10:27:30.056Z,18.10
2023-04-09T10:28:32.346Z,16.73
2023-04-09T10:29:34.674Z,19.00
2023-04-09T10:30:37.506Z,21.08
2023-04-09T10:31:54.346Z,21.27
2023-04-09T10:32:56.646Z,20.90
2023-04-09T10:34:04.256Z,19.67
2023-04-09T10:35:09.283Z,20.67
2023-04-09T10:36:12.959Z,19.92
2023-04-09T10:37:20.478Z,18.55
2023-04-09T10:38:39.136Z,20.65
2023-04-09T10:39:45.670Z,19.65
2023-04-09T10:40:51.602Z,19.30
2023-04-09T10:41:54.990Z,17.15
2023-04-09T10:42:59.531Z,17.25
2023-04-09T10:44:06.666Z,18.08
2023-04-09T10:45:14.449Z,16.20
2023-04-09T10:46:36.868Z,17.50
2023-04-09T10:47:41.388Z,17.40
2023-04-09T10:48:44.386Z,19.52
2023-04-09T10:49:49.583Z,18.70
2023-04-09T10:50:52.409Z,17.88
2023-04-09T10:52:05.188Z,19.35
2023-04-09T10:53:07.600Z,16.40
2023-04-09T10:54:33.206Z,16.50
2023-04-09T10:55:37.136Z,15.77
2023-04-09T10:56:39.430Z,15.68
2023-04-09T10:57:43.383Z,19.83
2023-04-09T10:58:45.919Z,15.93
2023-04-09T10:59:53.198Z,17.70
2023-04-09T11:00:55.750Z,15.38
2023-04-09T11:01:59.121Z,17.25
2023-04-09T11:03:35.589Z,16.58
2023-04-09T11:05:17.627Z,16.60
2023-04-09T11:06:22.018Z,15.20
2023-04-09T11:07:25.125Z,15.30
2023-04-09T11:08:33.708Z,17.63
2023-04-09T11:09:36.561Z,18.38
2023-04-09T11:10:41.059Z,15.65
2023-04-09T11:11:43.317Z,15.23
2023-04-09T11:12:47.930Z,16.33
2023-04-09T11:13:50.630Z,16.95
2023-04-09T11:14:52.898Z,20.35
2023-04-09T11:15:56.332Z,20.25
2023-04-09T11:16:58.643Z,18.95
2023-04-09T11:18:02.298Z,19.38
2023-04-09T11:19:04.676Z,18.60
2023-04-09T11:20:07.764Z,18.70
2023-04-09T11:21:10.936Z,19.50
2023-04-09T11:22:13.919Z,17.98
2023-04-09T11:23:19.389Z,17.33
2023-04-09T11:24:22.953Z,18.10
2023-04-09T11:25:30.858Z,17.17
2023-04-09T11:26:37.052Z,14.45
2023-04-09T11:27:39.798Z,15.73
2023-04-09T11:28:43.649Z,15.38
2023-04-09T11:29:45.900Z,15.90
2023-04-09T11:30:51.040Z,15.02
2023-04-09T11:31:53.392Z,14.38
2023-04-09T11:32:55.875Z,14.05
2023-04-09T11:33:58.131Z,15.23
2023-04-09T11:35:01.034Z,14.68
2023-04-09T11:36:06.177Z,14.35
2023-04-09T11:37:16.886Z,14.18
2023-04-09T11:38:19.141Z,15.02
2023-04-09T11:39:21.447Z,13.73
2023-04-09T11:40:25.925Z,15.70
2023-04-09T11:41:38.955Z,13.15
2023-04-09T11:42:41.348Z,15.25
2023-04-09T11:43:43.655Z,15.65
2023-04-09T11:44:46.749Z,15.35
2023-04-09T11:45:49.670Z,16.17
2023-04-09T11:46:52.253Z,14.18
2023-04-09T11:47:55.545Z,15.68
2023-04-09T11:48:58.251Z,15.05
2023-04-09T11:50:01.239Z,13.90
2023-04-09T11:51:04.148Z,13.70
2023-04-09T11:52:06.869Z,12.40
2023-04-09T11:53:22.803Z,15.20
2023-04-09T11:54:25.084Z,14.63
2023-04-09T11:55:29.354Z,14.93
2023-04-09T11:56:32.628Z,14.35
2023-04-09T11:57:44.860Z,15.20
2023-04-09T11:58:49.892Z,14.40
2023-04-09T11:59:52.219Z,20.73
2023-04-09T12:00:56.467Z,17.35
2023-04-09T12:01:59.523Z,17.05
2023-04-09T12:03:03.974Z,15.75
2023-04-09T12:04:07.923Z,14.57
2023-04-09T12:05:12.365Z,14.80
2023-04-09T12:06:14.896Z,14.32
2023-04-09T12:07:17.622Z,15.85
2023-04-09T12:08:24.994Z,12.50
2023-04-09T12:09:27.674Z,16.50
2023-04-09T12:10:35.800Z,15.68
2023-04-09T12:11:38.090Z,13.88
2023-04-09T12:12:47.920Z,16.77
2023-04-09T12:14:02.981Z,15.90
2023-04-09T12:15:32.488Z,16.55
2023-04-09T12:16:35.927Z,17.17
2023-04-09T12:17:38.265Z,15.38
2023-04-09T12:18:41.208Z,14.80
2023-04-09T12:19:43.448Z,13.68
2023-04-09T12:20:47.788Z,11.98
2023-04-09T12:21:56.136Z,13.05
2023-04-09T12:23:00.368Z,11.63
2023-04-09T12:24:02.573Z,10.82
2023-04-09T12:25:05.123Z,11.23
2023-04-09T12:26:07.691Z,12.20
2023-04-09T12:27:10.989Z,11.25
2023-04-09T12:28:16.282Z,11.73
2023-04-09T12:29:19.933Z,10.82
2023-04-09T12:30:23.184Z,11.52
2023-04-09T12:31:25.678Z,11.40
2023-04-09T12:32:28.260Z,10.52
2023-04-09T12:33:30.605Z,8.73
2023-04-09T12:34:32.877Z,10.60
2023-04-09T12:35:35.685Z,9.57
2023-04-09T12:36:39.770Z,10.27
2023-04-09T12:37:43.299Z,10.98
2023-04-09T12:38:45.611Z,10.85
2023-04-09T12:39:49.140Z,11.32
2023-04-09T12:40:51.375Z,10.60
2023-04-09T12:41:54.520Z,12.82
2023-04-09T12:42:57.016Z,11.65
2023-04-09T12:43:59.423Z,14.27
2023-04-09T12:45:01.872Z,10.73
2023-04-09T12:46:04.656Z,10.90
2023-04-09T12:47:07.919Z,15.18
2023-04-09T12:48:10.189Z,15.07
2023-04-09T12:49:12.600Z,19.60
2023-04-09T12:50:16.294Z,15.70
2023-04-09T12:51:18.830Z,16.75
2023-04-09T12:52:22.569Z,16.10
2023-04-09T12:53:24.897Z,17.73
2023-04-09T12:54:27.224Z,16.83
2023-04-09T12:55:29.586Z,20.92
2023-04-09T12:56:32.035Z,17.83
2023-04-09T12:57:34.515Z,17.30
2023-04-09T12:58:37.801Z,17.70
2023-04-09T12:59:40.082Z,16.15
2023-04-09T13:00:42.328Z,17.27
2023-04-09T13:01:44.658Z,16.70
2023-04-09T13:02:47.248Z,16.65
2023-04-09T13:03:49.778Z,16.13
2023-04-09T13:04:53.108Z,16.05
2023-04-09T13:05:55.989Z,14.68
2023-04-09T13:06:58.333Z,16.95
2023-04-09T13:08:00.609Z,15.35
2023-04-09T13:09:04.180Z,14.80
2023-04-09T13:10:07.279Z,15.93
2023-04-09T13:11:09.543Z,14.23
2023-04-09T13:12:12.680Z,14.57
2023-04-09T13:13:14.986Z,12.85
2023-04-09T13:14:17.236Z,10.43
2023-04-09T13:15:19.649Z,11.25
2023-04-09T13:16:22.027Z,9.88
2023-04-09T13:17:24.415Z,11.05
2023-04-09T13:18:26.730Z,11.68
2023-04-09T13:19:29.144Z,11.77
2023-04-09T13:20:31.712Z,11.52
2023-04-09T13:21:33.988Z,13.05
2023-04-09T13:22:36.585Z,11.98
2023-04-09T13:23:38.790Z,11.07
2023-04-09T13:24:41.154Z,9.43
2023-04-09T13:25:43.426Z,10.35
2023-04-09T13:26:45.716Z,11.10
2023-04-09T13:27:48.028Z,10.38
2023-04-09T13:28:52.054Z,10.10
2023-04-09T13:29:54.581Z,11.25
2023-04-09T13:30:57.043Z,9.82
2023-04-09T13:32:01.771Z,9.73
2023-04-09T13:33:04.137Z,9.38
2023-04-09T13:34:06.675Z,8.70
2023-04-09T13:35:10.348Z,9.05
2023-04-09T13:36:12.718Z,8.48
2023-04-09T13:37:15.750Z,8.32
2023-04-09T13:38:18.087Z,9.00
2023-04-09T13:39:20.773Z,10.55
2023-04-09T13:40:23.179Z,9.73
2023-04-09T13:41:29.782Z,9.68
2023-04-09T13:42:33.144Z,8.93
2023-04-09T13:43:35.488Z,8.80
2023-04-09T13:44:37.788Z,7.57
2023-04-09T13:45:40.071Z,8.00
2023-04-09T13:46:42.445Z,7.85
2023-04-09T13:47:44.867Z,9.65
2023-04-09T13:48:47.205Z,9.85
2023-04-09T13:49:51.674Z,9.50
2023-04-09T13:50:54.041Z,8.60
2023-04-09T13:51:56.368Z,7.45
2023-04-09T13:52:58.797Z,7.80
2023-04-09T13:54:01.238Z,8.95
2023-04-09T13:55:05.039Z,8.70
2023-04-09T13:56:07.642Z,7.25